Time;durP1;ratioP1;P1;durP2;ratioP2;P2;SDS_P1;SDS_P2;PMS_P1;PMS_P2;Temp;Humidity;BMP_temperature;BMP_pressure;BME280_temperature;BME280_humidity;BME280_pressure;Samples;Min_cycle;Max_cycle;Signal;HPM_P1;HPM_P2
2022/01/31 00:02:18;;;;;;;;;;;-0.60;78.10;;;;;;5022438;28;19955;-78
2022/01/31 00:04:45;;;;;;;;;;;-0.60;77.20;;;;;;5015552;28;20420;-79
2022/01/31 00:07:12;;;;;;;;;;;-0.60;76.80;;;;;;5014263;28;19925;-77
2022/01/31 00:09:43;;;;;;;;;;;-0.60;77.80;;;;;;5028058;28;19987;-77
2022/01/31 00:12:12;;;;;;;;;;;-0.50;78.20;;;;;;5011085;28;19926;-77
2022/01/31 00:14:43;;;;;;;;;;;-0.50;78.90;;;;;;5042328;28;19921;-78
2022/01/31 00:17:10;;;;;;;;;;;-0.40;78.10;;;;;;5049936;28;19924;-79
2022/01/31 00:19:38;;;;;;;;;;;-0.40;77.10;;;;;;5050296;28;19971;-79
2022/01/31 00:22:05;;;;;;;;;;;-0.40;76.60;;;;;;5054471;28;19924;-77
2022/01/31 00:24:35;;;;;;;;;;;-0.40;77.00;;;;;;5034348;28;19947;-79
2022/01/31 00:27:03;;;;;;;;;;;-0.40;76.40;;;;;;5051364;28;19975;-77
2022/01/31 00:29:30;;;;;;;;;;;-0.40;76.00;;;;;;5034291;28;19924;-77
2022/01/31 00:31:57;;;;;;;;;;;-0.40;75.90;;;;;;5046174;28;19979;-79
2022/01/31 00:34:24;;;;;;;;;;;-0.40;75.90;;;;;;5042725;28;20454;-78
2022/01/31 00:36:51;;;;;;;;;;;-0.50;75.90;;;;;;5021242;28;19928;-79
2022/01/31 00:39:18;;;;;;;;;;;-0.50;75.70;;;;;;5029957;28;19975;-78
2022/01/31 00:41:45;;;;;;;;;;;-0.50;75.90;;;;;;5062286;28;19924;-77
2022/01/31 00:46:46;;;;;;;;;;;-0.60;76.70;;;;;;5024057;28;20405;-77
2022/01/31 00:49:23;;;;;;;;;;;-0.70;77.30;;;;;;5008798;28;20377;-79
2022/01/31 00:51:50;;;;;;;;;;;-0.80;77.30;;;;;;5012883;28;20016;-77
2022/01/31 00:54:17;;;;;;;;;;;-0.80;76.50;;;;;;5013561;28;19921;-77
2022/01/31 00:56:44;;;;;;;;;;;-0.90;76.50;;;;;;5014493;28;19921;-77
2022/01/31 00:59:11;;;;;;;;;;;-0.90;77.00;;;;;;5013648;28;19922;-78
2022/01/31 01:01:38;;;;;;;;;;;-0.90;76.70;;;;;;5004143;28;19925;-78
2022/01/31 01:04:05;;;;;;;;;;;-0.90;77.50;;;;;;4999668;28;19925;-79
2022/01/31 01:06:31;;;;;;;;;;;-1.00;78.30;;;;;;5031820;28;19971;-78
2022/01/31 01:08:58;;;;;;;;;;;-1.00;78.30;;;;;;5018016;28;20289;-77
2022/01/31 01:11:25;;;;;;;;;;;-0.90;77.60;;;;;;5041409;28;19993;-79
2022/01/31 01:13:52;;;;;;;;;;;-0.90;78.90;;;;;;5035799;28;19924;-79
2022/01/31 01:16:19;;;;;;;;;;;-0.90;78.60;;;;;;5033177;28;20319;-78
2022/01/31 01:18:46;;;;;;;;;;;-0.90;77.90;;;;;;5026490;28;20317;-78
2022/01/31 01:21:13;;;;;;;;;;;-0.90;77.70;;;;;;5033102;28;19983;-78
2022/01/31 01:23:39;;;;;;;;;;;-0.90;77.90;;;;;;5019734;28;19956;-77
2022/01/31 01:26:06;;;;;;;;;;;-1.00;77.10;;;;;;5016479;28;19929;-79
2022/01/31 01:28:33;;;;;;;;;;;-0.90;77.00;;;;;;5017123;28;19921;-79
2022/01/31 01:31:01;;;;;;;;;;;-1.00;77.20;;;;;;5030460;28;20401;-77
2022/01/31 01:33:28;;;;;;;;;;;-1.00;77.60;;;;;;5016415;28;19975;-78
2022/01/31 01:35:57;;;;;;;;;;;-1.00;77.20;;;;;;5031115;28;20815;-77
2022/01/31 01:38:28;;;;;;;;;;;-1.10;77.20;;;;;;5032947;28;19933;-79
2022/01/31 01:40:57;;;;;;;;;;;-1.10;77.30;;;;;;5060729;28;20336;-79
2022/01/31 01:43:25;;;;;;;;;;;-1.10;77.30;;;;;;5036683;28;19933;-78
2022/01/31 01:45:53;;;;;;;;;;;-1.00;79.30;;;;;;5014345;28;19925;-79
2022/01/31 01:48:20;;;;;;;;;;;-0.90;79.60;;;;;;5026824;28;19975;-77
2022/01/31 01:50:47;;;;;;;;;;;-0.90;79.10;;;;;;5028152;28;20365;-77
2022/01/31 01:53:14;;;;;;;;;;;-0.80;78.90;;;;;;5035576;28;19928;-79
2022/01/31 01:55:42;;;;;;;;;;;-0.80;78.40;;;;;;5040474;28;19944;-77
2022/01/31 01:58:15;;;;;;;;;;;-1.10;77.20;;;;;;5029726;28;19936;-77
2022/01/31 02:01:02;;;;;;;;;;;-1.10;78.20;;;;;;5030504;28;19929;-76
2022/01/31 02:03:30;;;;;;;;;;;-1.20;77.60;;;;;;5013414;28;19925;-80
2022/01/31 02:05:57;;;;;;;;;;;-1.20;77.20;;;;;;5046214;28;19925;-78
2022/01/31 02:08:25;;;;;;;;;;;-1.30;77.20;;;;;;5033031;28;19925;-77
2022/01/31 02:10:52;;;;;;;;;;;-1.20;78.30;;;;;;5034704;28;19987;-77
2022/01/31 02:13:19;;;;;;;;;;;-1.20;78.00;;;;;;5034002;28;19948;-77
2022/01/31 02:15:49;;;;;;;;;;;-1.20;77.70;;;;;;5034315;28;19975;-78
2022/01/31 02:18:17;;;;;;;;;;;-1.20;77.40;;;;;;5027221;28;19975;-77
2022/01/31 02:20:44;;;;;;;;;;;-1.10;77.80;;;;;;5031833;28;20384;-77
2022/01/31 02:23:12;;;;;;;;;;;-1.10;77.40;;;;;;5037508;28;19998;-79
2022/01/31 02:25:50;;;;;;;;;;;-1.10;77.40;;;;;;5044225;28;19925;-78
2022/01/31 02:28:17;;;;;;;;;;;-1.10;78.40;;;;;;5028055;28;20336;-78
2022/01/31 02:30:44;;;;;;;;;;;-1.10;77.90;;;;;;5024065;28;20397;-77
2022/01/31 02:33:11;;;;;;;;;;;-1.00;78.40;;;;;;5047040;28;19929;-76
2022/01/31 02:35:38;;;;;;;;;;;-1.00;78.00;;;;;;5013585;28;19933;-77
2022/01/31 02:38:04;;;;;;;;;;;-1.00;77.60;;;;;;5038989;28;19975;-77
2022/01/31 02:40:31;;;;;;;;;;;-1.00;77.40;;;;;;5032935;28;19974;-78
2022/01/31 02:42:58;;;;;;;;;;;-1.00;77.10;;;;;;5044044;28;19924;-78
2022/01/31 02:45:25;;;;;;;;;;;-1.10;77.20;;;;;;5047734;28;20397;-77
2022/01/31 02:47:55;;;;;;;;;;;-1.10;78.10;;;;;;5019843;28;19932;-77
2022/01/31 02:50:23;;;;;;;;;;;-1.10;76.90;;;;;;5032877;28;20418;-79
2022/01/31 02:52:59;;;;;;;;;;;-1.20;76.40;;;;;;5019948;28;20317;-78
2022/01/31 02:55:26;;;;;;;;;;;-1.20;76.60;;;;;;5039574;28;19925;-77
2022/01/31 02:57:54;;;;;;;;;;;-1.30;77.40;;;;;;5022675;28;19933;-78
2022/01/31 03:00:21;;;;;;;;;;;-1.40;77.30;;;;;;5019216;28;19975;-79
2022/01/31 03:02:47;;;;;;;;;;;-1.40;78.40;;;;;;5037872;28;19929;-79
2022/01/31 03:05:14;;;;;;;;;;;-1.50;78.70;;;;;;5033180;28;20449;-80
2022/01/31 03:07:41;;;;;;;;;;;-1.50;78.30;;;;;;5034933;28;19929;-78
2022/01/31 03:10:08;;;;;;;;;;;-1.50;78.10;;;;;;5019095;28;19925;-77
2022/01/31 03:12:35;;;;;;;;;;;-1.50;78.80;;;;;;5015696;28;20399;-78
2022/01/31 03:15:02;;;;;;;;;;;-1.60;78.20;;;;;;5033397;28;20336;-78
2022/01/31 03:17:30;;;;;;;;;;;-1.60;77.90;;;;;;5015900;28;19929;-79
2022/01/31 03:19:56;;;;;;;;;;;-1.60;78.10;;;;;;5010245;28;19979;-79
2022/01/31 03:22:24;;;;;;;;;;;-1.60;78.10;;;;;;5026515;28;19929;-78
2022/01/31 03:24:51;;;;;;;;;;;-1.70;77.50;;;;;;5028227;28;19972;-77
2022/01/31 03:27:18;;;;;;;;;;;-1.70;77.80;;;;;;5013664;28;19930;-79
2022/01/31 03:29:45;;;;;;;;;;;-1.70;77.70;;;;;;5010004;28;19929;-79
2022/01/31 03:32:11;;;;;;;;;;;-1.70;77.70;;;;;;5003076;28;19975;-79
2022/01/31 03:34:38;;;;;;;;;;;-1.80;77.80;;;;;;5032453;28;19925;-80
2022/01/31 03:37:05;;;;;;;;;;;-1.80;77.60;;;;;;5031246;28;19925;-77
2022/01/31 03:39:32;;;;;;;;;;;-1.80;77.70;;;;;;5016303;28;19933;-77
2022/01/31 03:41:59;;;;;;;;;;;-1.80;77.90;;;;;;5030568;28;19929;-79
2022/01/31 03:44:26;;;;;;;;;;;-1.90;77.60;;;;;;5032739;28;20345;-79
2022/01/31 03:46:53;;;;;;;;;;;-1.90;77.30;;;;;;5034410;28;20016;-77
2022/01/31 03:49:20;;;;;;;;;;;-1.90;77.80;;;;;;5051922;28;19987;-78
2022/01/31 03:51:47;;;;;;;;;;;-1.90;77.40;;;;;;5035820;28;19932;-80
2022/01/31 03:54:14;;;;;;;;;;;-1.90;77.80;;;;;;5028102;28;19968;-78
2022/01/31 03:56:41;;;;;;;;;;;-2.00;78.40;;;;;;5033210;28;19925;-79
2022/01/31 03:59:08;;;;;;;;;;;-2.00;77.90;;;;;;5051524;28;20330;-79
2022/01/31 04:01:34;;;;;;;;;;;-2.00;78.60;;;;;;5045601;28;19928;-77
2022/01/31 04:04:02;;;;;;;;;;;-2.00;78.20;;;;;;5033404;28;19932;-77
2022/01/31 04:06:29;;;;;;;;;;;-2.00;78.10;;;;;;5034400;28;19932;-78
2022/01/31 04:08:55;;;;;;;;;;;-1.90;78.60;;;;;;5042491;28;20393;-77
2022/01/31 04:11:22;;;;;;;;;;;-1.90;78.40;;;;;;5043912;28;20381;-77
2022/01/31 04:13:49;;;;;;;;;;;-1.90;79.10;;;;;;5034742;28;19929;-77
2022/01/31 04:16:16;;;;;;;;;;;-1.80;78.90;;;;;;5033810;28;19925;-77
2022/01/31 04:18:43;;;;;;;;;;;-1.80;79.90;;;;;;5038030;28;19931;-77
2022/01/31 04:21:10;;;;;;;;;;;-1.90;79.30;;;;;;5048512;28;20035;-78
2022/01/31 04:23:36;;;;;;;;;;;-1.90;78.70;;;;;;5042108;28;19975;-79
2022/01/31 04:26:10;;;;;;;;;;;-1.90;78.70;;;;;;5032237;28;19925;-77
2022/01/31 04:33:47;;;;;;;;;;;-2.00;78.70;;;;;;5039866;28;20491;-77
2022/01/31 04:36:14;;;;;;;;;;;-2.00;79.20;;;;;;5016889;28;19929;-79
2022/01/31 04:38:45;;;;;;;;;;;-2.00;79.00;;;;;;5062123;28;20282;-77
2022/01/31 04:41:12;;;;;;;;;;;-2.00;80.10;;;;;;5051071;28;19925;-76
2022/01/31 04:43:39;;;;;;;;;;;-2.00;79.70;;;;;;5038379;28;19998;-77
2022/01/31 04:46:07;;;;;;;;;;;-2.00;79.40;;;;;;5034723;28;19932;-77
2022/01/31 04:48:34;;;;;;;;;;;-2.10;78.80;;;;;;5014067;28;20409;-79
2022/01/31 04:51:01;;;;;;;;;;;-2.10;79.00;;;;;;5026211;28;19925;-79
2022/01/31 04:53:28;;;;;;;;;;;-2.10;80.10;;;;;;5017382;28;19929;-77
2022/01/31 04:55:55;;;;;;;;;;;-2.10;80.20;;;;;;5016912;28;20297;-77
2022/01/31 04:58:23;;;;;;;;;;;-2.20;79.40;;;;;;5046318;28;19913;-79
2022/01/31 05:00:50;;;;;;;;;;;-2.20;79.40;;;;;;5039135;28;19928;-79
2022/01/31 05:03:19;;;;;;;;;;;-2.20;79.60;;;;;;5050625;28;19925;-76
2022/01/31 05:05:46;;;;;;;;;;;-2.20;79.70;;;;;;5034671;28;20289;-79
2022/01/31 05:08:14;;;;;;;;;;;-2.30;79.70;;;;;;5051623;28;19925;-76
2022/01/31 05:10:46;;;;;;;;;;;-2.30;80.40;;;;;;5061485;28;20389;-77
2022/01/31 05:13:14;;;;;;;;;;;-2.30;79.90;;;;;;5051985;28;19975;-77
2022/01/31 05:15:41;;;;;;;;;;;-2.40;81.90;;;;;;5036505;28;19924;-77
2022/01/31 05:18:08;;;;;;;;;;;-2.40;81.10;;;;;;5038456;28;19928;-79
2022/01/31 05:20:35;;;;;;;;;;;-2.40;81.60;;;;;;5036880;28;19932;-76
2022/01/31 05:23:04;;;;;;;;;;;-2.40;81.60;;;;;;5037655;28;19948;-78
2022/01/31 05:25:30;;;;;;;;;;;-2.40;82.20;;;;;;5036881;28;19925;-77
2022/01/31 05:27:57;;;;;;;;;;;-2.40;81.30;;;;;;5038035;28;19925;-76
2022/01/31 05:30:24;;;;;;;;;;;-2.40;81.30;;;;;;5051711;28;20358;-76
2022/01/31 05:32:51;;;;;;;;;;;-2.40;82.50;;;;;;5032218;28;19976;-76
2022/01/31 05:35:18;;;;;;;;;;;-2.40;82.70;;;;;;5029655;28;19932;-79
2022/01/31 05:37:45;;;;;;;;;;;-2.40;83.80;;;;;;5054587;28;20035;-79
2022/01/31 05:40:12;;;;;;;;;;;-2.40;84.00;;;;;;5027524;28;19933;-79
2022/01/31 05:42:38;;;;;;;;;;;-2.40;83.20;;;;;;5050676;28;19986;-78
2022/01/31 05:45:09;;;;;;;;;;;-2.30;82.90;;;;;;5037029;28;19925;-78
2022/01/31 05:47:36;;;;;;;;;;;-2.40;83.10;;;;;;5030341;28;19975;-77
2022/01/31 05:50:04;;;;;;;;;;;-2.30;84.10;;;;;;5049406;28;19928;-78
2022/01/31 05:52:31;;;;;;;;;;;-2.30;83.60;;;;;;5032713;28;19924;-76
2022/01/31 05:54:58;;;;;;;;;;;-2.40;83.00;;;;;;5029196;28;19925;-79
2022/01/31 05:57:25;;;;;;;;;;;-2.40;83.20;;;;;;5032464;28;19933;-77
2022/01/31 05:59:52;;;;;;;;;;;-2.40;83.20;;;;;;5031772;28;20063;-77
2022/01/31 06:02:19;;;;;;;;;;;-2.40;83.10;;;;;;5033302;28;19925;-76
2022/01/31 06:04:46;;;;;;;;;;;-2.40;83.10;;;;;;5047103;28;19931;-76
2022/01/31 06:07:13;;;;;;;;;;;-2.60;83.80;;;;;;5067382;28;19978;-77
2022/01/31 06:09:40;;;;;;;;;;;-2.70;84.20;;;;;;5040393;28;19935;-76
2022/01/31 06:12:07;;;;;;;;;;;-2.70;83.70;;;;;;5036270;28;19936;-76
2022/01/31 06:14:34;;;;;;;;;;;-2.70;84.80;;;;;;5018430;28;20283;-76
2022/01/31 06:17:02;;;;;;;;;;;-2.70;84.20;;;;;;5018548;28;19979;-78
2022/01/31 06:19:29;;;;;;;;;;;-2.70;85.10;;;;;;5034368;28;19983;-76
2022/01/31 06:21:56;;;;;;;;;;;-2.70;84.60;;;;;;5046708;28;19933;-78
2022/01/31 06:24:23;;;;;;;;;;;-2.70;84.20;;;;;;5047931;28;19933;-77
2022/01/31 06:26:50;;;;;;;;;;;-2.80;83.90;;;;;;5049686;28;19929;-77
2022/01/31 06:29:17;;;;;;;;;;;-2.80;84.80;;;;;;5050489;28;19929;-77
2022/01/31 06:31:44;;;;;;;;;;;-2.90;84.60;;;;;;5054162;28;20443;-77
2022/01/31 06:34:11;;;;;;;;;;;-2.90;84.60;;;;;;5053553;28;19979;-78
2022/01/31 06:36:38;;;;;;;;;;;-2.80;84.90;;;;;;5052402;28;19924;-78
2022/01/31 06:39:05;;;;;;;;;;;-2.80;86.30;;;;;;5036194;28;19948;-77
2022/01/31 06:41:32;;;;;;;;;;;-2.80;86.60;;;;;;5037695;28;20416;-79
2022/01/31 06:43:59;;;;;;;;;;;-2.80;86.40;;;;;;5035877;28;19925;-79
2022/01/31 06:46:26;;;;;;;;;;;-2.70;86.20;;;;;;5034493;28;19925;-77
2022/01/31 06:48:53;;;;;;;;;;;-2.70;86.30;;;;;;5041054;28;19967;-77
2022/01/31 06:51:19;;;;;;;;;;;-2.70;86.10;;;;;;5040727;28;19993;-76
2022/01/31 06:53:54;;;;;;;;;;;-2.70;86.30;;;;;;5030205;28;19932;-77
2022/01/31 06:56:28;;;;;;;;;;;-2.60;87.20;;;;;;5044132;28;19974;-77
2022/01/31 06:58:56;;;;;;;;;;;-2.60;87.20;;;;;;5051684;28;19932;-77
2022/01/31 07:01:25;;;;;;;;;;;-2.60;86.70;;;;;;5035917;28;20455;-77
2022/01/31 07:03:54;;;;;;;;;;;-2.60;86.40;;;;;;5035328;28;19933;-76
2022/01/31 07:06:21;;;;;;;;;;;-2.60;87.40;;;;;;5053928;28;20304;-77
2022/01/31 07:08:48;;;;;;;;;;;-2.70;87.00;;;;;;5038659;28;19936;-77
2022/01/31 07:11:21;;;;;;;;;;;-2.70;86.00;;;;;;5074153;28;19955;-77
2022/01/31 07:13:49;;;;;;;;;;;-2.80;85.80;;;;;;5016593;28;19995;-77
2022/01/31 07:16:16;;;;;;;;;;;-2.80;85.60;;;;;;5023099;28;19957;-77
2022/01/31 07:18:44;;;;;;;;;;;-2.80;85.40;;;;;;5026181;28;19971;-77
2022/01/31 07:21:13;;;;;;;;;;;-2.80;86.50;;;;;;5011586;28;19980;-78
2022/01/31 07:26:17;;;;;;;;;;;-2.70;87.60;;;;;;5007643;28;19930;-77
2022/01/31 07:28:43;;;;;;;;;;;-2.70;88.50;;;;;;5020342;28;20329;-77
2022/01/31 07:31:13;;;;;;;;;;;-2.70;88.20;;;;;;5030966;28;19929;-78
2022/01/31 07:33:41;;;;;;;;;;;-2.70;88.60;;;;;;5034354;28;19948;-78
2022/01/31 07:36:08;;;;;;;;;;;-2.60;87.90;;;;;;5044640;28;19991;-78
2022/01/31 07:38:35;;;;;;;;;;;-2.60;88.80;;;;;;5013288;28;20393;-76
2022/01/31 07:41:02;;;;;;;;;;;-2.50;90.10;;;;;;5022934;28;20004;-77
2022/01/31 07:43:31;;;;;;;;;;;-2.40;89.40;;;;;;5031440;28;19926;-78
2022/01/31 07:45:58;;;;;;;;;;;-2.30;89.80;;;;;;5022882;28;19975;-77
2022/01/31 07:48:29;;;;;;;;;;;-2.30;90.20;;;;;;5035314;28;19928;-77
2022/01/31 07:50:56;;;;;;;;;;;-2.20;90.10;;;;;;5041347;28;19979;-76
2022/01/31 07:53:22;;;;;;;;;;;-2.10;90.00;;;;;;5046762;28;19932;-77
2022/01/31 07:55:50;;;;;;;;;;;-2.00;90.20;;;;;;5018317;28;20335;-76
2022/01/31 07:58:17;;;;;;;;;;;-2.00;89.60;;;;;;5032793;28;19936;-78
2022/01/31 08:00:46;;;;;;;;;;;-2.00;88.90;;;;;;5060398;28;20397;-77
2022/01/31 08:03:14;;;;;;;;;;;-1.90;89.00;;;;;;5031833;28;19925;-78
2022/01/31 08:05:41;;;;;;;;;;;-1.80;88.80;;;;;;5013925;28;19926;-76
2022/01/31 08:08:08;;;;;;;;;;;-1.50;88.30;;;;;;5012788;28;19929;-77
2022/01/31 08:10:37;;;;;;;;;;;-1.40;88.00;;;;;;5036850;28;19929;-77
2022/01/31 08:13:06;;;;;;;;;;;-1.10;88.20;;;;;;5002002;28;19926;-76
2022/01/31 08:15:44;;;;;;;;;;;-0.90;88.20;;;;;;4996173;28;19933;-78
2022/01/31 08:18:11;;;;;;;;;;;-0.70;87.30;;;;;;5018864;28;20964;-78
2022/01/31 08:20:43;;;;;;;;;;;-0.50;87.40;;;;;;5002023;28;20393;-75
2022/01/31 08:23:10;;;;;;;;;;;-0.30;88.20;;;;;;5020066;28;19956;-77
2022/01/31 08:25:37;;;;;;;;;;;-0.10;87.00;;;;;;5023874;28;19933;-76
2022/01/31 08:28:11;;;;;;;;;;;0.00;87.30;;;;;;5007217;28;20358;-77
2022/01/31 08:30:53;;;;;;;;;;;0.20;87.20;;;;;;5006186;28;19929;-77
2022/01/31 08:33:35;;;;;;;;;;;0.50;86.90;;;;;;5020939;28;19999;-78
2022/01/31 08:36:03;;;;;;;;;;;0.80;86.40;;;;;;5026538;28;20276;-77
2022/01/31 08:38:30;;;;;;;;;;;1.00;86.10;;;;;;5020470;28;19929;-77
2022/01/31 08:40:58;;;;;;;;;;;1.20;85.90;;;;;;5028801;28;19963;-77
2022/01/31 08:43:26;;;;;;;;;;;1.40;84.80;;;;;;5024554;28;19925;-77
2022/01/31 08:45:56;;;;;;;;;;;1.70;84.60;;;;;;5022463;28;19929;-77
2022/01/31 08:48:24;;;;;;;;;;;1.90;84.00;;;;;;5043874;28;20544;-77
2022/01/31 08:50:51;;;;;;;;;;;2.10;83.40;;;;;;5021578;28;20306;-76
2022/01/31 08:53:18;;;;;;;;;;;2.30;83.00;;;;;;5019047;28;19980;-78
2022/01/31 08:55:49;;;;;;;;;;;2.40;83.10;;;;;;5025423;28;20299;-76
2022/01/31 08:58:18;;;;;;;;;;;2.50;83.80;;;;;;5011189;28;19937;-77
2022/01/31 09:00:49;;;;;;;;;;;2.60;83.70;;;;;;5011741;28;19929;-75
2022/01/31 09:05:43;;;;;;;;;;;2.90;81.50;;;;;;5031195;28;19925;-76
2022/01/31 09:08:10;;;;;;;;;;;3.00;81.20;;;;;;5029634;28;19936;-75
2022/01/31 09:10:36;;;;;;;;;;;3.10;81.20;;;;;;5037016;28;19990;-77
2022/01/31 09:13:03;;;;;;;;;;;3.30;80.80;;;;;;5037020;28;19955;-76
2022/01/31 09:15:30;;;;;;;;;;;3.40;80.60;;;;;;5044447;28;19941;-77
2022/01/31 09:17:57;;;;;;;;;;;3.50;80.00;;;;;;5043077;28;19926;-76
2022/01/31 09:20:24;;;;;;;;;;;3.50;81.70;;;;;;5055606;28;19941;-75
2022/01/31 09:22:51;;;;;;;;;;;3.50;82.60;;;;;;5023546;28;19929;-77
2022/01/31 09:25:21;;;;;;;;;;;3.60;82.20;;;;;;5030755;28;20421;-77
2022/01/31 09:27:48;;;;;;;;;;;3.80;82.00;;;;;;5028362;28;20420;-78
2022/01/31 09:30:15;;;;;;;;;;;3.90;82.00;;;;;;5044602;28;19929;-78
2022/01/31 09:32:41;;;;;;;;;;;4.00;81.30;;;;;;5031467;28;20286;-78
2022/01/31 09:35:08;;;;;;;;;;;4.10;81.20;;;;;;5033951;28;19983;-76
2022/01/31 09:37:35;;;;;;;;;;;4.20;81.10;;;;;;5033146;28;19928;-77
2022/01/31 09:40:04;;;;;;;;;;;4.40;81.40;;;;;;5032523;28;19925;-76
2022/01/31 09:42:50;;;;;;;;;;;4.50;81.20;;;;;;5018609;28;19925;-77
2022/01/31 09:45:34;;;;;;;;;;;4.70;80.80;;;;;;5027597;28;20446;-77
2022/01/31 09:50:32;;;;;;;;;;;5.00;78.90;;;;;;5038056;28;19929;-78
2022/01/31 09:52:59;;;;;;;;;;;5.20;78.70;;;;;;5036281;28;19979;-78
2022/01/31 09:55:26;;;;;;;;;;;5.30;77.90;;;;;;5042711;28;21415;-78
2022/01/31 09:57:53;;;;;;;;;;;5.40;78.10;;;;;;5022170;28;19925;-77
2022/01/31 10:00:30;;;;;;;;;;;5.50;77.70;;;;;;5032354;28;19959;-78
2022/01/31 10:03:09;;;;;;;;;;;5.70;77.50;;;;;;5034854;28;19929;-78
2022/01/31 10:05:37;;;;;;;;;;;5.90;77.50;;;;;;5001775;28;19930;-76
2022/01/31 10:08:12;;;;;;;;;;;6.10;76.30;;;;;;5029086;28;19929;-77
2022/01/31 10:10:43;;;;;;;;;;;6.20;75.50;;;;;;5038450;28;20541;-78
2022/01/31 10:16:26;;;;;;;;;;;6.40;74.10;;;;;;5014430;28;19930;-77
2022/01/31 10:18:59;;;;;;;;;;;6.40;73.60;;;;;;5012989;28;19948;-77
2022/01/31 10:21:26;;;;;;;;;;;6.50;73.60;;;;;;5017006;28;20362;-78
2022/01/31 10:23:53;;;;;;;;;;;6.50;73.50;;;;;;5040176;28;19925;-78
2022/01/31 10:26:28;;;;;;;;;;;6.70;73.20;;;;;;5013079;28;20446;-79
2022/01/31 10:29:11;;;;;;;;;;;6.80;73.60;;;;;;5004567;28;19929;-78
2022/01/31 10:31:38;;;;;;;;;;;6.90;72.80;;;;;;5024778;28;19975;-77
2022/01/31 10:34:18;;;;;;;;;;;7.00;71.90;;;;;;5023434;28;19960;-78
2022/01/31 10:36:45;;;;;;;;;;;7.10;72.60;;;;;;5038977;28;19929;-79
2022/01/31 10:43:23;;;;;;;;;;;7.30;73.10;;;;;;5052432;28;19933;-79
2022/01/31 10:54:09;;;;;;;;;;;7.90;71.60;;;;;;5019692;28;19929;-77
2022/01/31 10:56:38;;;;;;;;;;;8.10;70.70;;;;;;5004274;28;19947;-79
2022/01/31 10:59:06;;;;;;;;;;;8.20;70.10;;;;;;5002612;28;20401;-79
2022/01/31 11:01:34;;;;;;;;;;;8.40;70.10;;;;;;5033686;28;20344;-78
2022/01/31 11:04:21;;;;;;;;;;;8.50;68.70;;;;;;5037865;28;19991;-77
2022/01/31 11:06:49;;;;;;;;;;;8.60;68.60;;;;;;5028591;28;19926;-77
2022/01/31 11:09:17;;;;;;;;;;;8.40;69.40;;;;;;5034509;28;19979;-79
2022/01/31 11:11:45;;;;;;;;;;;8.60;69.40;;;;;;5048138;28;19925;-77
2022/01/31 11:14:13;;;;;;;;;;;8.80;68.60;;;;;;5031539;28;19925;-79
2022/01/31 11:16:46;;;;;;;;;;;8.90;67.70;;;;;;5029785;28;19975;-77
2022/01/31 11:19:16;;;;;;;;;;;9.10;67.50;;;;;;5020517;28;19933;-79
2022/01/31 11:21:44;;;;;;;;;;;9.10;67.80;;;;;;5025134;28;20435;-79
2022/01/31 11:24:19;;;;;;;;;;;9.10;67.70;;;;;;5048891;28;19924;-78
2022/01/31 11:26:50;;;;;;;;;;;9.20;67.10;;;;;;5035538;28;19924;-77
2022/01/31 11:29:18;;;;;;;;;;;9.20;67.20;;;;;;5034810;28;19936;-79
2022/01/31 11:31:45;;;;;;;;;;;9.30;67.30;;;;;;5035123;28;20296;-77
2022/01/31 11:34:13;;;;;;;;;;;9.20;67.20;;;;;;5034335;28;20373;-76
2022/01/31 11:36:41;;;;;;;;;;;9.20;67.40;;;;;;5035010;28;19929;-76
2022/01/31 11:39:12;;;;;;;;;;;9.30;67.80;;;;;;5038262;28;19987;-79
2022/01/31 11:41:45;;;;;;;;;;;9.50;67.70;;;;;;5015339;28;19971;-77
2022/01/31 11:44:50;;;;;;;;;;;9.70;67.40;;;;;;5025700;28;19978;-79
2022/01/31 11:47:20;;;;;;;;;;;9.80;67.10;;;;;;4954262;28;19930;-79
2022/01/31 11:49:50;;;;;;;;;;;10.00;66.50;;;;;;4971623;28;19926;-79
2022/01/31 11:52:17;;;;;;;58.17;37.83;;;10.00;66.10;;;;;;5002023;28;19940;-77
2022/01/31 11:55:03;;;;;;;56.47;38.75;;;10.10;66.10;;;;;;5045844;28;20064;-77
2022/01/31 11:57:33;;;;;;;62.95;48.00;;;10.10;65.60;;;;;;5052299;28;20413;-77
2022/01/31 12:00:05;;;;;;;57.95;40.00;;;10.10;65.60;;;;;;5040442;28;20069;-79
2022/01/31 12:02:39;;;;;;;;;;;10.00;66.20;;;;;;5014677;28;20080;-77
2022/01/31 12:05:07;;;;;;;;;;;10.00;66.20;;;;;;5020925;28;19924;-78
2022/01/31 12:07:42;;;;;;;;;;;10.20;65.90;;;;;;5030398;28;20015;-77
2022/01/31 12:10:23;;;;;;;;;;;10.40;65.40;;;;;;5039105;28;19921;-78
2022/01/31 12:15:59;;;;;;;53.40;35.97;;;10.50;64.30;;;;;;5051438;28;19928;-79
2022/01/31 12:18:56;;;;;;;57.97;39.95;;;10.70;64.60;;;;;;5030070;28;20620;-76
2022/01/31 12:24:27;;;;;;;53.83;36.20;;;11.30;62.00;;;;;;5015227;28;20389;-76
2022/01/31 12:26:59;;;;;;;55.08;37.00;;;11.60;60.80;;;;;;5019470;28;20572;-76
2022/01/31 12:29:30;;;;;;;48.95;35.15;;;11.80;60.10;;;;;;5027805;28;20064;-78
2022/01/31 12:32:08;;;;;;;53.70;36.60;;;11.80;59.60;;;;;;5023390;28;20104;-78
2022/01/31 12:34:36;;;;;;;;;;;12.00;58.60;;;;;;5019186;28;20057;-78
2022/01/31 12:37:05;;;;;;;47.67;34.28;;;11.90;59.40;;;;;;5022595;28;19928;-78
2022/01/31 12:39:36;;;;;;;;;;;11.90;59.20;;;;;;5027823;28;20065;-77
2022/01/31 12:45:23;;;;;;;;;;;11.60;60.70;;;;;;5013820;28;20486;-76
2022/01/31 12:48:06;;;;;;;;;;;11.30;61.50;;;;;;5034686;28;19925;-76
2022/01/31 12:50:35;;;;;;;;;;;10.90;62.30;;;;;;5036777;28;19928;-76
2022/01/31 12:53:06;;;;;;;;;;;10.90;62.50;;;;;;5023025;28;19921;-79
2022/01/31 12:55:33;;;;;;;;;;;11.00;62.70;;;;;;5024582;28;19921;-78
2022/01/31 12:58:00;;;;;;;54.47;35.05;;;11.00;61.00;;;;;;5022164;28;19925;-78
2022/01/31 13:00:43;;;;;;;54.83;35.90;;;11.00;61.60;;;;;;5023613;28;20061;-78
2022/01/31 13:03:37;;;;;;;;;;;11.10;61.40;;;;;;5041527;28;20060;-78
2022/01/31 13:06:27;;;;;;;;;;;11.30;61.20;;;;;;5024509;28;19925;-77
2022/01/31 13:08:54;;;;;;;;;;;11.40;61.00;;;;;;5023134;28;19925;-76
2022/01/31 13:11:24;;;;;;;;;;;11.40;59.40;;;;;;5016144;28;20275;-78
2022/01/31 13:13:51;;;;;;;;;;;11.60;59.30;;;;;;5009964;28;19973;-77
2022/01/31 13:16:18;;;;;;;;;;;11.90;58.50;;;;;;5026599;28;19931;-76
2022/01/31 13:18:45;;;;;;;41.22;28.48;;;12.10;56.30;;;;;;5022671;28;19991;-76
2022/01/31 13:21:13;;;;;;;47.35;32.17;;;12.40;56.40;;;;;;5009221;28;20403;-79
2022/01/31 13:23:42;;;;;;;48.00;31.45;;;12.50;56.30;;;;;;5014944;28;20061;-79
2022/01/31 13:26:10;;;;;;;;;;;12.80;55.50;;;;;;5024230;28;20053;-76
2022/01/31 13:28:37;;;;;;;;;;;13.10;54.50;;;;;;5018428;28;19929;-77
2022/01/31 13:31:04;;;;;;;;;;;13.20;54.40;;;;;;5022284;28;19921;-76
2022/01/31 13:33:31;;;;;;;38.10;24.70;;;13.40;52.50;;;;;;5041627;28;19921;-79
2022/01/31 13:36:00;;;;;;;;;;;13.60;51.70;;;;;;4999106;28;20062;-77
2022/01/31 13:38:28;;;;;;;;;;;13.90;49.40;;;;;;5005914;28;19922;-77
2022/01/31 13:40:57;;;;;;;;;;;13.90;49.40;;;;;;5010927;28;19926;-76
2022/01/31 13:43:26;;;;;;;;;;;14.10;47.80;;;;;;5027463;28;19921;-79
2022/01/31 13:51:28;;;;;;;36.75;24.38;;;13.60;49.00;;;;;;5025188;28;19975;-79
2022/01/31 13:53:56;;;;;;;39.83;28.65;;;13.90;49.70;;;;;;5010409;28;20404;-77
2022/01/31 13:56:23;;;;;;;128.85;12.63;;;14.20;50.10;;;;;;5003485;28;20097;-76
2022/01/31 13:59:02;;;;;;;;;;;14.50;33.10;;;;;;5017583;28;20509;-78
2022/01/31 14:01:30;;;;;;;130.70;7.03;;;15.00;27.70;;;;;;5019841;28;19929;-80
2022/01/31 14:03:59;;;;;;;11.23;0.90;;;15.50;23.90;;;;;;5031110;28;20077;-76
2022/01/31 14:06:30;;;;;;;1.35;0.03;;;15.70;24.80;;;;;;5013333;28;20056;-79
2022/01/31 14:09:02;;;;;;;4.47;0.20;;;15.90;22.70;;;;;;5025602;28;20065;-78
2022/01/31 14:11:39;;;;;;;3.15;0.10;;;16.00;22.40;;;;;;5020922;28;20578;-78
2022/01/31 14:14:10;;;;;;;1.33;0.17;;;16.10;22.70;;;;;;4994008;28;20054;-80
2022/01/31 14:16:42;;;;;;;0.22;0.00;;;16.10;22.60;;;;;;4994291;28;20064;-78
2022/01/31 14:19:12;;;;;;;1.48;0.05;;;16.10;22.50;;;;;;5011719;28;20641;-79
2022/01/31 14:21:41;;;;;;;1.40;0.10;;;16.00;22.10;;;;;;5003753;28;20062;-77
2022/01/31 14:24:09;;;;;;;2.17;0.10;;;16.10;21.90;;;;;;5033275;28;20057;-79
2022/01/31 14:27:00;;;;;;;;;;;16.10;22.00;;;;;;5019262;28;20054;-77
2022/01/31 14:29:27;;;;;;;2.30;0.15;;;16.00;21.40;;;;;;5028371;28;19935;-78
2022/01/31 14:31:55;;;;;;;1.65;0.00;;;16.00;22.40;;;;;;4988481;28;20517;-78
2022/01/31 14:34:40;;;;;;;;;;;16.00;22.20;;;;;;5015879;28;20520;-76
2022/01/31 14:37:09;;;;;;;;;;;16.00;23.00;;;;;;5005634;28;20365;-79
2022/01/31 14:39:49;;;;;;;;;;;16.00;21.80;;;;;;5013620;28;19929;-79
2022/01/31 14:47:55;;;;;;;;;;;15.80;22.40;;;;;;5025815;28;20084;-78
2022/01/31 14:50:27;;;;;;;;;;;15.80;22.60;;;;;;5025611;28;20462;-78
2022/01/31 14:52:54;;;;;;;;;;;15.80;22.70;;;;;;5027696;28;19927;-79
2022/01/31 14:55:24;;;;;;;1.45;0.00;;;15.70;23.40;;;;;;5029244;28;20274;-78
2022/01/31 14:57:53;;;;;;;0.40;0.10;;;15.70;22.30;;;;;;5024902;28;20052;-76
2022/01/31 15:00:20;;;;;;;;;;;15.70;22.70;;;;;;5032847;28;20536;-77
2022/01/31 15:02:48;;;;;;;;;;;15.60;22.80;;;;;;5021722;28;19961;-76
2022/01/31 15:05:19;;;;;;;;;;;15.60;22.70;;;;;;5026881;28;20007;-78
2022/01/31 15:07:47;;;;;;;1.38;0.00;;;15.60;22.80;;;;;;5021003;28;19922;-79
2022/01/31 15:10:20;;;;;;;;;;;15.50;23.10;;;;;;5025740;28;20060;-77
2022/01/31 15:12:47;;;;;;;;;;;15.40;23.80;;;;;;5006485;28;19925;-78